Time;durP1;ratioP1;P1;durP2;ratioP2;P2;SDS_P1;SDS_P2;PMS_P1;PMS_P2;Temp;Humidity;BMP_temperature;BMP_pressure;BME280_temperature;BME280_humidity;BME280_pressure;Samples;Min_cycle;Max_cycle;Signal;HPM_P1;HPM_P2
2021/05/05 00:00:41;;;;;;;4.05;1.50;;;;;;;5.51;78.57;98881.94;5017682;28;20391;-72
2021/05/05 00:03:07;;;;;;;4.32;1.42;;;;;;;5.50;79.44;98883.72;5017315;28;20053;-71
2021/05/05 00:05:33;;;;;;;5.57;1.67;;;;;;;5.63;80.22;98888.28;5033231;28;20057;-70
2021/05/05 00:08:00;;;;;;;7.25;1.70;;;;;;;5.68;78.37;98902.09;5016631;28;20462;-71
2021/05/05 00:10:26;;;;;;;4.57;1.83;;;;;;;5.68;79.67;98915.31;5017343;28;20053;-70
2021/05/05 00:12:52;;;;;;;3.92;1.80;;;;;;;5.66;81.70;98925.16;5000793;28;20100;-69
2021/05/05 00:15:22;;;;;;;4.57;1.20;;;;;;;5.50;83.17;98889.00;5017232;28;20060;-71
2021/05/05 00:17:48;;;;;;;3.88;1.60;;;;;;;5.39;83.42;98889.66;5017066;28;20057;-72
2021/05/05 00:20:16;;;;;;;3.30;1.80;;;;;;;5.26;84.38;98883.41;5017737;28;20054;-71
2021/05/05 00:22:44;;;;;;;4.20;1.70;;;;;;;5.19;84.31;98885.59;5017569;28;20435;-72
2021/05/05 00:25:11;;;;;;;3.17;1.60;;;;;;;5.09;83.98;98887.91;5017499;28;20057;-73
2021/05/05 00:27:37;;;;;;;6.97;1.90;;;;;;;5.06;83.63;98890.72;5032746;28;20054;-73
2021/05/05 00:30:08;;;;;;;4.90;1.60;;;;;;;5.01;83.77;98885.72;5016524;28;20050;-73
2021/05/05 00:32:34;;;;;;;8.23;1.98;;;;;;;4.98;84.17;98887.69;5017558;28;20049;-71
2021/05/05 00:35:01;;;;;;;3.08;1.80;;;;;;;4.94;83.60;98880.84;5017374;28;20420;-71
2021/05/05 00:37:27;;;;;;;3.83;1.88;;;;;;;4.95;83.59;98869.38;5032650;28;20061;-70
2021/05/05 00:39:55;;;;;;;6.10;2.00;;;;;;;5.02;84.76;98874.19;5017544;28;20054;-70
2021/05/05 00:42:22;;;;;;;5.07;2.17;;;;;;;4.97;84.64;98870.13;5016232;28;20045;-72
2021/05/05 00:44:49;;;;;;;2.50;2.00;;;;;;;4.98;84.67;98870.03;5017352;28;20053;-70
2021/05/05 00:47:16;;;;;;;6.07;2.13;;;;;;;4.95;85.38;98877.31;5032734;28;20135;-71
2021/05/05 00:49:43;;;;;;;7.10;1.92;;;;;;;4.89;85.91;98875.84;5016619;28;20104;-70
2021/05/05 00:52:10;;;;;;;8.00;2.30;;;;;;;4.95;86.38;98872.84;5017234;28;20057;-71
2021/05/05 00:54:36;;;;;;;6.13;2.45;;;;;;;4.92;86.12;98866.88;5016948;28;20061;-70
2021/05/05 00:57:02;;;;;;;7.32;2.55;;;;;;;5.05;86.20;98869.69;5016615;28;20050;-70
2021/05/05 00:59:28;;;;;;;5.15;2.30;;;;;;;5.06;85.01;98868.75;5017162;28;20046;-69
2021/05/05 01:01:54;;;;;;;8.23;2.97;;;;;;;5.11;85.02;98864.88;5016113;28;20053;-70
2021/05/05 01:04:21;;;;;;;4.50;2.25;;;;;;;5.09;85.84;98858.81;5016855;28;20042;-71
2021/05/05 01:06:48;;;;;;;4.40;2.28;;;;;;;5.05;85.51;98848.53;5017053;28;20049;-71
2021/05/05 01:09:15;;;;;;;9.32;2.80;;;;;;;5.05;84.14;98859.94;5016236;28;20049;-71
2021/05/05 01:11:42;;;;;;;9.20;2.45;;;;;;;5.07;84.50;98854.56;5032383;28;20060;-74
2021/05/05 01:14:09;;;;;;;5.15;2.10;;;;;;;5.09;83.18;98852.66;5015620;28;20332;-69
2021/05/05 01:16:36;;;;;;;5.63;1.90;;;;;;;5.14;83.54;98855.91;5031726;28;20057;-71
2021/05/05 01:19:03;;;;;;;6.53;2.03;;;;;;;5.28;82.71;98857.69;5015773;28;20046;-70
2021/05/05 01:21:30;;;;;;;7.13;2.13;;;;;;;5.26;81.75;98852.53;5015791;28;20058;-73
2021/05/05 01:23:56;;;;;;;9.52;2.58;;;;;;;5.25;82.51;98848.19;4998895;28;20057;-69
2021/05/05 01:26:22;;;;;;;4.45;2.25;;;;;;;5.29;82.60;98852.31;5031478;28;20058;-71
2021/05/05 01:28:48;;;;;;;6.10;2.25;;;;;;;5.39;81.17;98857.91;5016382;28;20432;-70
2021/05/05 01:31:16;;;;;;;6.30;2.03;;;;;;;5.39;79.74;98849.16;5016052;28;20050;-71
2021/05/05 01:33:42;;;;;;;11.80;2.47;;;;;;;5.44;80.83;98854.97;5015335;28;20118;-71
2021/05/05 01:36:12;;;;;;;12.43;2.65;;;;;;;5.44;81.15;98847.91;5031900;28;20361;-70
2021/05/05 01:38:38;;;;;;;8.20;2.40;;;;;;;5.44;80.94;98847.03;5016719;28;20050;-69
2021/05/05 01:41:05;;;;;;;13.32;3.97;;;;;;;5.48;80.01;98848.56;5015266;28;20431;-72
2021/05/05 01:43:31;;;;;;;9.45;2.72;;;;;;;5.45;80.21;98854.03;5015981;28;20050;-70
2021/05/05 01:45:57;;;;;;;4.95;2.55;;;;;;;5.45;79.83;98851.38;5016094;28;20054;-73
2021/05/05 01:48:23;;;;;;;10.70;2.38;;;;;;;5.46;80.30;98857.53;5014816;28;20056;-71
2021/05/05 01:50:50;;;;;;;8.82;2.30;;;;;;;5.39;82.00;98846.50;5015682;28;20065;-71
2021/05/05 01:53:17;;;;;;;10.60;2.97;;;;;;;5.41;81.86;98853.38;5014480;28;20108;-70
2021/05/05 01:55:44;;;;;;;12.63;3.00;;;;;;;5.44;81.93;98853.19;5015557;28;20054;-71
2021/05/05 01:58:10;;;;;;;11.32;3.00;;;;;;;5.49;80.32;98854.72;5015647;28;20050;-72
2021/05/05 02:00:37;;;;;;;9.80;3.00;;;;;;;5.49;80.63;98852.91;5014504;28;20390;-73
2021/05/05 02:03:04;;;;;;;13.15;3.75;;;;;;;5.43;80.79;98851.50;5015266;28;20498;-70
2021/05/05 02:05:30;;;;;;;12.25;3.05;;;;;;;5.42;81.97;98848.94;5030796;28;20112;-71
2021/05/05 02:07:56;;;;;;;15.73;3.22;;;;;;;5.44;81.15;98852.34;5015460;28;20053;-71
2021/05/05 02:10:23;;;;;;;8.70;3.30;;;;;;;5.42;80.98;98851.59;5015608;28;20073;-72
2021/05/05 02:12:49;;;;;;;32.90;4.88;;;;;;;5.39;81.54;98851.78;5015473;28;20054;-71
2021/05/05 02:15:19;;;;;;;13.48;3.65;;;;;;;5.39;80.76;98857.09;5015440;28;20053;-72
2021/05/05 02:17:46;;;;;;;23.05;3.47;;;;;;;5.31;80.83;98846.94;5015428;28;20058;-72
2021/05/05 02:20:14;;;;;;;13.88;3.10;;;;;;;5.38;80.37;98864.16;5015339;28;20052;-71
2021/05/05 02:22:41;;;;;;;18.30;3.15;;;;;;;5.44;81.12;98857.63;5015504;28;20104;-72
2021/05/05 02:25:09;;;;;;;12.00;3.35;;;;;;;5.44;80.46;98858.50;5015383;28;20049;-70
2021/05/05 02:27:37;;;;;;;12.90;3.30;;;;;;;5.50;80.74;98861.72;5015435;28;20054;-72
2021/05/05 02:30:06;;;;;;;9.85;3.17;;;;;;;5.54;79.72;98872.03;5030569;28;20057;-72
2021/05/05 02:32:33;;;;;;;14.27;2.88;;;;;;;5.59;81.10;98871.72;5015391;28;20062;-71
2021/05/05 02:34:59;;;;;;;10.05;3.80;;;;;;;5.56;81.01;98867.47;5019119;28;20094;-71
2021/05/05 02:37:25;;;;;;;16.98;3.80;;;;;;;5.53;80.76;98872.97;5018383;28;20092;-71
2021/05/05 02:39:52;;;;;;;13.38;3.40;;;;;;;5.49;81.89;98871.44;5018429;28;20116;-70
2021/05/05 02:42:19;;;;;;;15.80;3.40;;;;;;;5.46;81.39;98871.63;5019367;28;20112;-72
2021/05/05 02:44:48;;;;;;;19.10;3.55;;;;;;;5.45;82.06;98875.19;5017974;28;20497;-71
2021/05/05 02:47:16;;;;;;;17.30;3.47;;;;;;;5.40;81.88;98872.84;5017977;28;20060;-71
2021/05/05 02:49:43;;;;;;;18.88;4.50;;;;;;;5.38;83.21;98873.88;5017936;28;20107;-70
2021/05/05 02:52:10;;;;;;;23.27;3.88;;;;;;;5.34;82.60;98875.84;5019222;28;20050;-72
2021/05/05 02:54:36;;;;;;;16.23;3.90;;;;;;;5.31;83.59;98876.06;5017839;28;20085;-71
2021/05/05 02:57:03;;;;;;;15.05;3.97;;;;;;;5.33;82.86;98871.50;5018957;28;20100;-72
2021/05/05 02:59:29;;;;;;;26.38;3.75;;;;;;;5.24;83.84;98877.38;5018820;28;20045;-72
2021/05/05 03:01:57;;;;;;;14.05;3.20;;;;;;;5.24;83.75;98887.94;5018549;28;20374;-72
2021/05/05 03:04:24;;;;;;;18.50;6.20;;;;;;;5.22;84.03;98892.50;5018835;28;20045;-71
2021/05/05 03:06:50;;;;;;;16.77;3.72;;;;;;;5.24;83.58;98888.78;5018868;28;20054;-71
2021/05/05 03:09:19;;;;;;;21.77;3.92;;;;;;;5.22;84.15;98885.38;5018844;28;20053;-73
2021/05/05 03:11:46;;;;;;;21.17;5.18;;;;;;;5.21;84.46;98878.41;5017632;28;20054;-72
2021/05/05 03:14:13;;;;;;;20.58;4.90;;;;;;;5.22;84.63;98877.44;5018431;28;20335;-72
2021/05/05 03:16:39;;;;;;;19.73;3.75;;;;;;;5.17;84.05;98882.16;5018435;28;20061;-73
2021/05/05 03:19:06;;;;;;;18.17;3.67;;;;;;;5.16;84.12;98877.81;5017584;28;20054;-70
2021/05/05 03:21:32;;;;;;;16.98;4.07;;;;;;;5.14;83.42;98882.34;5018606;28;20112;-71
2021/05/05 03:23:59;;;;;;;21.10;5.20;;;;;;;5.02;84.39;98882.13;5018393;28;20092;-71
2021/05/05 03:26:25;;;;;;;19.55;3.85;;;;;;;5.04;83.86;98887.34;5018485;28;20069;-71
2021/05/05 03:28:51;;;;;;;13.02;3.22;;;;;;;5.01;83.59;98879.59;5018345;28;20058;-72
2021/05/05 03:31:18;;;;;;;19.52;3.58;;;;;;;5.00;84.21;98880.50;5017290;28;20053;-70
2021/05/05 03:33:44;;;;;;;17.35;3.70;;;;;;;5.02;83.72;98892.69;5001018;28;20093;-71
2021/05/05 03:36:10;;;;;;;18.58;4.65;;;;;;;4.97;84.87;98883.34;5018271;28;20423;-71
2021/05/05 03:38:36;;;;;;;13.57;3.60;;;;;;;4.95;84.29;98890.53;5018235;28;20061;-73
2021/05/05 03:41:02;;;;;;;14.32;4.50;;;;;;;4.96;84.66;98890.41;5018033;28;20076;-71
2021/05/05 03:43:28;;;;;;;14.82;4.07;;;;;;;4.98;84.29;98895.63;5017929;28;20049;-72
2021/05/05 03:45:54;;;;;;;18.38;5.30;;;;;;;5.05;83.75;98894.31;5017050;28;20104;-73
2021/05/05 03:48:23;;;;;;;10.60;3.53;;;;;;;5.10;83.64;98901.97;5018166;28;20057;-72
2021/05/05 03:50:49;;;;;;;14.57;4.50;;;;;;;5.10;84.13;98891.41;5018038;28;20050;-71
2021/05/05 03:53:16;;;;;;;22.90;4.47;;;;;;;5.10;83.73;98891.41;5017771;28;20058;-71
2021/05/05 03:55:42;;;;;;;16.15;3.60;;;;;;;5.11;83.21;98895.75;5016773;28;20054;-73
2021/05/05 03:58:08;;;;;;;21.10;4.20;;;;;;;5.18;82.71;98890.94;5016680;28;20431;-71
2021/05/05 04:00:35;;;;;;;12.93;3.42;;;;;;;5.16;83.01;98880.47;5017703;28;20072;-72
2021/05/05 04:03:01;;;;;;;16.25;4.20;;;;;;;5.19;83.27;98893.53;5017377;28;20340;-72
2021/05/05 04:05:27;;;;;;;16.38;4.20;;;;;;;5.27;82.78;98903.63;5017477;28;20058;-71
2021/05/05 04:07:53;;;;;;;21.75;4.05;;;;;;;5.28;82.64;98895.59;5017665;28;20107;-72
2021/05/05 04:10:19;;;;;;;23.10;4.28;;;;;;;5.33;83.66;98899.78;5032985;28;20058;-72
2021/05/05 04:12:45;;;;;;;21.00;4.05;;;;;;;5.37;83.59;98893.34;5017437;28;20436;-72
2021/05/05 04:15:30;;;;;;;19.35;3.60;;;;;;;5.39;82.72;98886.19;5030541;28;20041;-72
2021/05/05 04:18:15;;;;;;;12.10;3.42;;;;;;;5.34;82.50;98898.84;5017487;28;20143;-72
2021/05/05 04:21:03;;;;;;;17.90;4.95;;;;;;;5.32;82.98;98901.56;5017462;28;20045;-72
2021/05/05 04:23:48;;;;;;;12.30;4.05;;;;;;;5.28;83.42;98906.19;5016373;28;20100;-72
2021/05/05 04:26:16;;;;;;;17.45;4.97;;;;;;;5.29;82.68;98905.25;5016166;28;20383;-70
2021/05/05 04:28:43;;;;;;;11.20;4.13;;;;;;;5.25;81.80;98902.88;5017252;28;20411;-70
2021/05/05 04:31:09;;;;;;;15.80;4.75;;;;;;;5.25;83.05;98905.50;5016053;28;20088;-71
2021/05/05 04:33:35;;;;;;;17.13;4.47;;;;;;;5.25;83.03;98906.38;5017214;28;20050;-71
2021/05/05 04:36:02;;;;;;;19.08;4.45;;;;;;;5.31;83.18;98907.81;5017298;28;20352;-71
2021/05/05 04:38:28;;;;;;;15.80;4.35;;;;;;;5.34;83.26;98912.06;5016462;28;20108;-72
2021/05/05 04:40:54;;;;;;;28.30;5.80;;;;;;;5.39;84.30;98912.66;5017521;28;20084;-72
2021/05/05 04:43:20;;;;;;;25.25;4.68;;;;;;;5.48;83.22;98920.03;5017227;28;20053;-69
2021/05/05 04:45:46;;;;;;;25.40;4.93;;;;;;;5.49;83.42;98927.00;5017453;28;20057;-71
2021/05/05 04:48:13;;;;;;;21.88;4.00;;;;;;;5.48;83.00;98930.59;5017190;28;20489;-70
2021/05/05 04:50:39;;;;;;;19.40;4.68;;;;;;;5.53;82.58;98931.19;5032907;28;20054;-71
2021/05/05 04:53:05;;;;;;;20.00;5.40;;;;;;;5.56;83.15;98936.28;5017549;28;20049;-70
2021/05/05 04:55:31;;;;;;;20.27;4.95;;;;;;;5.58;82.43;98939.69;5017531;28;20045;-72
2021/05/05 04:57:57;;;;;;;15.13;4.57;;;;;;;5.58;82.25;98944.16;5017870;28;20053;-71
2021/05/05 05:00:24;;;;;;;18.60;4.63;;;;;;;5.51;81.89;98925.13;5018231;28;20096;-71
2021/05/05 05:02:50;;;;;;;18.23;5.00;;;;;;;5.66;81.78;98946.34;5017685;28;20444;-72
2021/05/05 05:05:17;;;;;;;19.08;5.43;;;;;;;5.65;82.29;98947.25;5017617;28;20347;-70
2021/05/05 05:07:43;;;;;;;17.77;4.90;;;;;;;5.69;81.46;98948.78;5016919;28;20111;-70
2021/05/05 05:10:10;;;;;;;17.73;4.95;;;;;;;5.68;81.80;98949.75;5018520;28;20058;-69
2021/05/05 05:12:36;;;;;;;17.75;4.97;;;;;;;5.67;80.80;98951.53;5017878;28;20518;-71
2021/05/05 05:15:02;;;;;;;18.08;4.95;;;;;;;5.60;81.65;98952.00;5016977;28;20056;-71
2021/05/05 05:17:29;;;;;;;24.17;6.50;;;;;;;5.60;81.65;98960.78;5017579;28;20059;-70
2021/05/05 05:19:55;;;;;;;21.20;5.10;;;;;;;5.56;81.87;98968.06;5032281;28;20363;-71
2021/05/05 05:22:21;;;;;;;14.82;4.60;;;;;;;5.53;83.11;98952.38;5016875;28;20054;-72
2021/05/05 05:24:47;;;;;;;12.18;4.55;;;;;;;5.47;83.12;98958.03;5016975;28;20053;-71
2021/05/05 05:27:13;;;;;;;17.40;5.28;;;;;;;5.36;84.73;98965.72;5017119;28;20407;-70
2021/05/05 05:29:39;;;;;;;15.20;4.68;;;;;;;5.37;83.88;98962.13;5016890;28;20061;-69
2021/05/05 05:32:06;;;;;;;16.95;5.90;;;;;;;5.50;83.72;98973.72;5016089;28;20054;-72
2021/05/05 05:34:32;;;;;;;14.18;4.82;;;;;;;5.37;85.18;98970.94;5015988;28;20045;-70
2021/05/05 05:36:58;;;;;;;19.65;5.25;;;;;;;5.15;87.11;98974.84;5016180;28;20053;-72
2021/05/05 05:39:25;;;;;;;14.20;4.95;;;;;;;5.06;87.48;98985.09;5016051;28;20057;-72
2021/05/05 05:41:53;;;;;;;27.42;5.30;;;;;;;5.06;87.82;98985.09;5015873;28;20069;-70
2021/05/05 05:44:19;;;;;;;19.70;5.20;;;;;;;5.00;86.94;98976.56;5030983;28;20054;-71
2021/05/05 05:46:46;;;;;;;15.80;4.70;;;;;;;5.06;87.30;98982.47;5031057;28;20057;-72
2021/05/05 05:49:12;;;;;;;13.77;5.15;;;;;;;5.07;85.71;98989.44;5031156;28;20049;-70
2021/05/05 05:51:38;;;;;;;17.10;4.65;;;;;;;5.02;86.31;98998.47;5031241;28;20058;-70
2021/05/05 05:54:05;;;;;;;12.27;4.90;;;;;;;4.98;85.71;98977.59;5015650;28;20045;-72
2021/05/05 05:56:31;;;;;;;11.18;4.38;;;;;;;5.15;85.45;99005.72;5015771;28;20080;-71
2021/05/05 05:58:59;;;;;;;10.95;4.60;;;;;;;5.27;85.52;99014.75;5015649;28;20062;-72
2021/05/05 06:01:26;;;;;;;12.18;4.50;;;;;;;5.38;84.09;99017.63;5015842;28;20458;-70
2021/05/05 06:03:53;;;;;;;14.25;4.60;;;;;;;5.52;84.39;99005.38;5015457;28;20414;-71
2021/05/05 06:06:19;;;;;;;13.15;4.00;;;;;;;5.54;83.16;99017.59;5015630;28;20057;-71
2021/05/05 06:08:45;;;;;;;9.13;3.53;;;;;;;5.56;83.79;99010.41;5015208;28;20336;-73
2021/05/05 06:11:12;;;;;;;8.63;3.30;;;;;;;5.58;84.26;99015.63;5015488;28;20060;-72
2021/05/05 06:13:38;;;;;;;12.00;4.55;;;;;;;5.54;82.29;99028.19;5015365;28;20046;-72
2021/05/05 06:16:05;;;;;;;12.32;4.05;;;;;;;5.43;82.47;99023.50;5015555;28;20313;-70
2021/05/05 06:18:31;;;;;;;8.73;3.78;;;;;;;5.46;81.88;99035.72;5030831;28;20065;-71
2021/05/05 06:20:58;;;;;;;11.02;4.15;;;;;;;5.41;83.62;99027.19;5014437;28;20104;-72
2021/05/05 06:23:24;;;;;;;6.57;3.90;;;;;;;5.39;81.58;99035.19;5015203;28;20442;-70
2021/05/05 06:25:50;;;;;;;11.50;4.20;;;;;;;5.43;82.03;99027.94;5015371;28;20065;-70
2021/05/05 06:28:16;;;;;;;9.43;4.78;;;;;;;5.48;82.53;99038.25;5015206;28;20347;-71
2021/05/05 06:30:42;;;;;;;9.40;3.97;;;;;;;5.42;81.08;99045.63;5015200;28;20046;-71
2021/05/05 06:33:09;;;;;;;7.95;4.55;;;;;;;5.37;82.42;99042.38;5015412;28;20108;-71
2021/05/05 06:35:35;;;;;;;10.52;3.85;;;;;;;5.42;82.12;99050.91;5015476;28;20042;-70
2021/05/05 06:38:01;;;;;;;9.88;3.97;;;;;;;5.46;81.61;99043.66;5015292;28;20056;-72
2021/05/05 06:40:28;;;;;;;8.55;4.55;;;;;;;5.47;81.38;99037.41;5015241;28;20062;-70
2021/05/05 06:42:54;;;;;;;10.50;5.40;;;;;;;5.59;81.84;99051.72;5014140;28;20054;-72
2021/05/05 06:45:20;;;;;;;10.50;4.88;;;;;;;5.62;82.86;99040.09;5015122;28;20049;-71
2021/05/05 06:47:47;;;;;;;6.82;3.95;;;;;;;5.66;81.64;99044.28;5015115;28;20491;-71
2021/05/05 06:50:13;;;;;;;8.75;4.15;;;;;;;5.69;81.59;99049.38;5015177;28;20351;-70
2021/05/05 06:52:40;;;;;;;16.63;5.05;;;;;;;5.79;82.39;99044.41;5015244;28;20058;-69
2021/05/05 06:55:09;;;;;;;11.60;4.13;;;;;;;5.94;81.14;99045.31;5030264;28;20351;-71
2021/05/05 06:57:36;;;;;;;8.48;5.45;;;;;;;6.07;80.91;99048.94;5015001;28;20080;-71
2021/05/05 07:00:07;;;;;;;9.40;4.10;;;;;;;6.16;79.82;99046.69;5015198;28;20352;-70
2021/05/05 07:02:33;;;;;;;9.90;4.50;;;;;;;6.21;79.38;99047.25;5014819;28;20064;-71
2021/05/05 07:05:00;;;;;;;6.78;4.15;;;;;;;6.18;80.81;99045.66;5014716;28;20134;-70
2021/05/05 07:07:29;;;;;;;12.85;5.00;;;;;;;6.34;80.43;99042.91;5014896;28;20056;-72
2021/05/05 07:09:56;;;;;;;11.50;4.50;;;;;;;6.41;76.99;99051.31;5014911;28;20049;-70
2021/05/05 07:12:23;;;;;;;9.82;3.92;;;;;;;6.60;76.75;99066.94;5014961;28;20054;-71
2021/05/05 07:14:49;;;;;;;10.98;4.35;;;;;;;6.53;78.28;99060.31;5013873;28;20446;-71
2021/05/05 07:17:16;;;;;;;7.70;4.38;;;;;;;6.58;76.61;99052.94;5015063;28;20050;-70
2021/05/05 07:19:43;;;;;;;13.55;4.55;;;;;;;6.68;78.09;99061.16;5015304;28;20131;-72
2021/05/05 07:22:09;;;;;;;10.95;4.25;;;;;;;6.74;76.74;99060.78;5018373;28;20489;-70
2021/05/05 07:24:38;;;;;;;11.93;3.58;;;;;;;6.87;76.97;99063.50;5018253;28;20060;-72
2021/05/05 07:27:04;;;;;;;15.98;4.38;;;;;;;6.96;76.38;99063.88;5018686;28;20057;-70
2021/05/05 07:29:30;;;;;;;10.75;3.38;;;;;;;6.92;74.30;99057.91;5018390;28;20057;-71
2021/05/05 07:31:56;;;;;;;10.35;3.53;;;;;;;6.96;75.06;99056.75;5018435;28;20050;-71
2021/05/05 07:34:24;;;;;;;9.63;3.25;;;;;;;6.91;76.44;99059.72;5018325;28;20042;-73
2021/05/05 07:36:52;;;;;;;6.70;3.50;;;;;;;6.69;75.61;99054.91;5018273;28;20054;-72
2021/05/05 07:48:00;;;;;;;3.88;2.15;;;;;;;5.77;77.93;99105.38;5016968;28;20426;-73
2021/05/05 07:50:15;;;;;;;4.10;2.58;;;;;;;5.52;81.10;99090.94;5028857;28;20045;-72
2021/05/05 07:52:41;;;;;;;3.63;2.58;;;;;;;5.69;81.01;99129.69;5018100;28;20317;-71
2021/05/05 07:55:08;;;;;;;4.60;1.80;;;;;;;5.62;78.25;99117.72;5017984;28;20037;-72
2021/05/05 07:57:34;;;;;;;1.77;1.50;;;;;;;5.55;78.75;99119.00;5017851;28;20076;-72
2021/05/05 08:00:00;;;;;;;2.17;1.73;;;;;;;5.65;81.01;99132.56;5033235;28;20431;-72
2021/05/05 08:02:26;;;;;;;6.03;1.83;;;;;;;5.58;80.26;99138.22;5017772;28;20088;-71
2021/05/05 08:04:53;;;;;;;3.38;2.10;;;;;;;5.76;80.52;99135.47;5016406;28;20137;-71
2021/05/05 08:07:20;;;;;;;2.90;1.77;;;;;;;5.84;80.29;99141.16;5017689;28;20053;-71
2021/05/05 08:09:52;;;;;;;6.53;2.10;;;;;;;5.83;80.13;99144.75;5017622;28;20069;-72
2021/05/05 08:12:21;;;;;;;6.38;2.38;;;;;;;5.84;81.65;99151.75;5017453;28;20428;-73
2021/05/05 08:14:50;;;;;;;3.85;1.88;;;;;;;5.83;81.36;99154.50;5016599;28;20103;-72
2021/05/05 08:17:18;;;;;;;4.97;1.95;;;;;;;5.94;80.43;99162.66;5017470;28;20061;-70
2021/05/05 08:19:45;;;;;;;7.28;2.38;;;;;;;6.07;82.05;99152.25;5016701;28;20383;-70
2021/05/05 08:22:12;;;;;;;6.15;2.42;;;;;;;5.90;79.43;99161.16;5017449;28;20046;-73
2021/05/05 08:24:38;;;;;;;5.10;2.53;;;;;;;5.88;79.66;99170.13;5017285;28;20050;-70
2021/05/05 08:27:05;;;;;;;8.95;2.97;;;;;;;5.80;79.66;99179.38;5017239;28;20053;-72
2021/05/05 08:29:32;;;;;;;9.27;2.60;;;;;;;5.73;82.21;99193.91;5017448;28;20057;-72
2021/05/05 08:32:02;;;;;;;10.25;3.13;;;;;;;5.58;83.14;99188.50;5016046;28;20057;-72
2021/05/05 08:34:29;;;;;;;9.50;3.42;;;;;;;5.63;83.08;99195.34;5017242;28;20061;-72
2021/05/05 08:36:57;;;;;;;8.43;3.33;;;;;;;5.58;83.61;99190.31;5017273;28;20054;-71
2021/05/05 08:39:23;;;;;;;9.18;2.97;;;;;;;5.63;81.46;99192.69;5016982;28;20054;-70
2021/05/05 08:41:50;;;;;;;8.07;3.78;;;;;;;5.77;84.54;99198.06;5017161;28;20399;-71
2021/05/05 08:44:17;;;;;;;10.55;3.72;;;;;;;6.00;82.80;99195.06;5032311;28;20352;-73
2021/05/05 08:46:45;;;;;;;12.68;3.20;;;;;;;6.03;80.86;99195.75;5016853;28;20439;-71
2021/05/05 08:49:14;;;;;;;8.75;3.97;;;;;;;6.46;82.67;99204.78;5016936;28;20407;-72
2021/05/05 08:51:41;;;;;;;8.90;3.60;;;;;;;6.71;82.77;99192.72;5016838;28;20054;-72
2021/05/05 08:54:08;;;;;;;5.90;3.03;;;;;;;6.82;80.46;99184.09;5015647;28;20046;-71
2021/05/05 08:56:36;;;;;;;8.73;3.25;;;;;;;6.90;79.84;99188.00;5016709;28;20050;-72
2021/05/05 08:59:11;;;;;;;6.18;3.78;;;;;;;6.86;79.26;99196.22;5016751;28;20053;-71
2021/05/05 09:01:39;;;;;;;7.15;3.72;;;;;;;6.86;80.80;99202.38;5016680;28;20054;-72
2021/05/05 09:04:07;;;;;;;4.50;2.80;;;;;;;6.72;79.91;99218.28;5016286;28;20061;-71
2021/05/05 09:06:53;;;;;;;4.68;2.70;;;;;;;6.73;82.37;99227.94;5015394;28;20457;-72
2021/05/05 09:09:52;;;;;;;7.93;3.00;;;;;;;6.39;80.45;99225.50;5016599;28;20427;-71
2021/05/05 09:12:25;;;;;;;7.28;2.78;;;;;;;6.41;80.86;99226.25;5014849;28;20080;-73
2021/05/05 09:14:59;;;;;;;7.43;2.70;;;;;;;6.39;78.52;99221.03;5015296;28;20068;-70
2021/05/05 09:17:27;;;;;;;5.93;2.60;;;;;;;6.57;79.04;99225.34;5016681;28;20050;-70
2021/05/05 09:20:05;;;;;;;10.32;2.63;;;;;;;6.82;79.50;99227.41;5016348;28;20060;-72
2021/05/05 09:22:42;;;;;;;9.77;2.83;;;;;;;6.88;75.46;99227.03;5016374;28;20057;-71
2021/05/05 09:25:11;;;;;;;8.88;2.22;;;;;;;7.01;76.86;99226.25;5016119;28;20045;-72
2021/05/05 09:27:39;;;;;;;10.90;3.08;;;;;;;7.10;74.26;99216.88;5016714;28;20061;-73
2021/05/05 09:30:21;;;;;;;8.38;3.45;;;;;;;7.28;71.93;99222.84;5031404;28;20053;-71
2021/05/05 09:32:53;;;;;;;10.13;2.75;;;;;;;7.49;73.50;99231.28;5016046;28;20057;-73
2021/05/05 09:35:29;;;;;;;7.13;3.00;;;;;;;7.68;74.42;99232.75;5016051;28;20050;-70
2021/05/05 09:37:58;;;;;;;9.55;2.50;;;;;;;7.86;72.40;99242.19;5015989;28;20053;-70
2021/05/05 09:40:24;;;;;;;4.00;2.15;;;;;;;7.59;71.64;99250.13;5016078;28;20057;-70
2021/05/05 09:42:50;;;;;;;11.50;3.85;;;;;;;6.86;79.17;99304.97;5015347;28;20056;-73
2021/05/05 09:45:16;;;;;;;8.88;2.03;;;;;;;5.89;79.17;99269.81;5014733;28;20049;-71
2021/05/05 09:47:56;;;;;;;6.15;1.90;;;;;;;5.42;78.74;99282.94;5014541;28;20061;-72
2021/05/05 09:50:38;;;;;;;7.53;2.03;;;;;;;5.28;82.15;99279.22;5015558;28;20049;-71
2021/05/05 09:53:15;;;;;;;11.05;3.40;;;;;;;5.36;84.64;99289.41;5015753;28;20064;-73
2021/05/05 09:55:42;;;;;;;13.93;2.90;;;;;;;5.70;86.58;99292.88;5015799;28;20057;-72
2021/05/05 09:58:23;;;;;;;10.75;2.78;;;;;;;6.11;85.39;99286.22;5015580;28;20056;-72
2021/05/05 10:01:09;;;;;;;8.60;2.65;;;;;;;6.72;86.03;99296.03;5015487;28;20058;-71
2021/05/05 10:03:44;;;;;;;7.63;2.50;;;;;;;6.84;80.72;99265.28;5015347;28;20057;-72
2021/05/05 10:06:17;;;;;;;7.07;2.28;;;;;;;7.17;78.00;99285.41;5030876;28;20347;-73
2021/05/05 10:08:43;;;;;;;9.27;2.65;;;;;;;7.19;77.42;99299.44;5015635;28;20378;-70
2021/05/05 10:11:09;;;;;;;12.32;2.72;;;;;;;7.34;79.75;99286.16;5015659;28;20204;-72
2021/05/05 10:13:37;;;;;;;6.45;3.22;;;;;;;7.79;78.29;99303.78;5015834;28;20065;-73
2021/05/05 10:16:04;;;;;;;7.90;2.28;;;;;;;7.83;78.74;99302.63;5014648;28;20060;-72
2021/05/05 10:18:30;;;;;;;8.68;2.65;;;;;;;7.85;75.15;99314.03;5015541;28;20049;-72
2021/05/05 10:21:01;;;;;;;10.38;2.75;;;;;;;7.85;73.08;99311.38;5014413;28;20435;-74
2021/05/05 10:23:27;;;;;;;11.75;2.58;;;;;;;7.79;75.64;99295.81;5030621;28;20432;-72
2021/05/05 10:25:53;;;;;;;9.23;2.88;;;;;;;7.82;73.66;99317.72;5015194;28;20105;-73
2021/05/05 10:28:21;;;;;;;8.48;2.88;;;;;;;7.89;75.28;99323.50;5015288;28;20408;-74
2021/05/05 10:30:49;;;;;;;13.40;3.80;;;;;;;7.91;73.78;99326.94;5015402;28;20053;-73
2021/05/05 10:33:25;;;;;;;10.80;3.63;;;;;;;8.06;71.64;99317.09;5015100;28;20160;-71
2021/05/05 10:35:52;;;;;;;15.82;3.03;;;;;;;8.01;70.89;99328.03;5015285;28;20057;-73
2021/05/05 10:38:35;;;;;;;13.05;3.40;;;;;;;8.24;72.19;99322.19;5015128;28;20053;-72
2021/05/05 10:41:06;;;;;;;9.40;3.75;;;;;;;8.31;71.17;99331.47;5015405;28;20054;-71
2021/05/05 10:43:49;;;;;;;;;;;;;;;8.45;71.58;99329.72;5015717;28;20058;-71
2021/05/05 10:46:28;;;;;;;9.70;3.50;;;;;;;8.67;71.96;99335.34;5015244;28;19921;-73
2021/05/05 10:49:02;;;;;;;11.00;3.30;;;;;;;8.83;71.04;99332.53;5015096;28;20054;-72
2021/05/05 10:51:59;;;;;;;11.75;4.35;;;;;;;8.94;67.67;99330.97;5014295;28;20057;-73
2021/05/05 10:54:48;;;;;;;6.53;2.15;;;;;;;9.05;68.56;99323.06;5020093;28;20046;-71
2021/05/05 10:57:14;;;;;;;10.40;2.60;;;;;;;9.26;67.86;99324.38;5018992;28;20053;-71
2021/05/05 11:00:12;;;;;;;9.18;2.75;;;;;;;9.54;65.47;99318.00;5018921;28;20489;-74
2021/05/05 11:02:52;;;;;;;8.50;3.17;;;;;;;9.50;65.14;99327.97;5017251;28;20108;-71
2021/05/05 11:05:33;;;;;;;8.60;2.65;;;;;;;9.22;66.85;99329.91;5018589;28;20046;-72
2021/05/05 11:08:01;;;;;;;;;;;;;;;9.01;67.11;99350.88;5019331;28;20058;-71
2021/05/05 11:13:15;;;;;;;9.02;2.60;;;;;;;8.44;69.97;99360.75;5018630;28;20056;-72
2021/05/05 11:15:41;;;;;;;8.13;2.75;;;;;;;8.06;68.93;99375.56;5018509;28;20042;-72
2021/05/05 11:18:47;;;;;;;10.02;3.08;;;;;;;7.53;70.81;99375.31;5018615;28;20054;-71
2021/05/05 11:21:18;;;;;;;13.55;3.25;;;;;;;7.44;76.57;99374.94;5018247;28;20053;-70
2021/05/05 11:23:47;;;;;;;9.75;3.28;;;;;;;7.51;75.58;99371.91;5018409;28;20061;-71
2021/05/05 11:26:13;;;;;;;8.98;2.75;;;;;;;7.87;73.78;99367.91;5018314;28;20064;-72
2021/05/05 11:29:00;;;;;;;11.02;3.35;;;;;;;8.40;77.21;99372.56;5018319;28;20057;-72
2021/05/05 11:31:50;;;;;;;9.45;2.90;;;;;;;8.59;70.60;99368.72;5018281;28;20423;-71
2021/05/05 11:34:17;;;;;;;;;;;;;;;8.50;69.21;99376.31;5018758;28;20053;-71
2021/05/05 11:37:05;;;;;;;9.13;3.25;;;;;;;8.26;70.77;99394.72;5033421;28;19944;-71
2021/05/05 11:39:37;;;;;;;7.10;3.00;;;;;;;8.15;71.75;99408.69;5017190;28;20050;-69
2021/05/05 11:42:10;;;;;;;8.98;2.80;;;;;;;8.40;67.97;99394.69;5018162;28;20050;-72
2021/05/05 11:44:45;;;;;;;6.47;2.88;;;;;;;8.65;69.26;99397.59;5018020;28;20435;-72
2021/05/05 11:47:26;;;;;;;5.85;2.53;;;;;;;8.87;65.76;99391.72;5017940;28;20046;-70
2021/05/05 11:50:01;;;;;;;13.18;2.40;;;;;;;9.25;63.12;99395.41;5018093;28;20045;-72
2021/05/05 11:52:31;;;;;;;7.65;2.25;;;;;;;9.70;60.58;99407.50;5018087;28;20064;-72
2021/05/05 11:55:19;;;;;;;6.07;2.50;;;;;;;10.15;59.72;99407.84;5017846;28;20474;-70
2021/05/05 11:57:54;;;;;;;7.78;2.33;;;;;;;10.34;57.47;99401.22;5018056;28;20045;-70